Time;durP1;ratioP1;P1;durP2;ratioP2;P2;SDS_P1;SDS_P2;PMS_P1;PMS_P2;Temp;Humidity;BMP_temperature;BMP_pressure;BME280_temperature;BME280_humidity;BME280_pressure;Samples;Min_cycle;Max_cycle;Signal;HPM_P1;HPM_P2
2022/04/13 00:00:50;;;;;;;;;5.75;5.00;;;;;15.65;60.71;100406.44;5056238;28;45359;-64
2022/04/13 00:03:15;;;;;;;;;4.50;1.00;;;;;15.58;60.36;100403.34;5056161;28;45209;-66
2022/04/13 00:05:40;;;;;;;;;3.00;2.50;;;;;15.50;61.04;100403.84;5054602;28;45444;-62
2022/04/13 00:08:06;;;;;;;;;3.75;2.25;;;;;15.48;61.13;100408.38;5053727;28;45458;-65
2022/04/13 00:10:35;;;;;;;;;2.50;1.75;;;;;15.47;61.16;100407.56;5055375;28;45414;-63
2022/04/13 00:13:01;;;;;;;;;5.75;3.25;;;;;15.45;61.47;100412.09;5056318;28;45418;-61
2022/04/13 00:15:27;;;;;;;;;4.50;2.00;;;;;15.44;61.56;100409.53;5056211;28;45262;-60
2022/04/13 00:17:52;;;;;;;;;3.25;3.25;;;;;15.45;61.66;100416.53;5056316;28;45415;-61
2022/04/13 00:20:17;;;;;;;;;3.75;3.75;;;;;15.45;61.42;100421.84;5056364;28;45487;-61
2022/04/13 00:22:43;;;;;;;;;7.00;2.75;;;;;15.47;62.03;100428.75;5056416;28;45490;-63
2022/04/13 00:25:08;;;;;;;;;4.00;3.00;;;;;15.48;61.99;100424.28;5056157;28;45617;-61
2022/04/13 00:27:34;;;;;;;;;5.00;3.00;;;;;15.48;61.95;100422.50;5056026;28;45233;-64
2022/04/13 00:29:59;;;;;;;;;1.75;1.75;;;;;15.46;61.99;100418.22;5071950;28;45336;-65
2022/04/13 00:32:25;;;;;;;;;3.00;2.25;;;;;15.51;62.35;100426.75;5056584;28;45224;-65
2022/04/13 00:34:51;;;;;;;;;3.50;3.50;;;;;15.52;62.05;100428.44;5056037;28;47143;-63
2022/04/13 00:37:16;;;;;;;;;4.00;2.00;;;;;15.57;61.82;100430.81;5055856;28;45272;-61
2022/04/13 00:39:43;;;;;;;;;3.50;3.00;;;;;15.57;62.19;100436.97;5056202;28;45600;-61
2022/04/13 00:42:09;;;;;;;;;5.50;4.00;;;;;15.58;61.99;100436.00;5056264;28;45236;-60
2022/04/13 00:44:35;;;;;;;;;4.25;2.00;;;;;15.60;62.09;100431.47;5058001;28;46323;-64
2022/04/13 00:47:05;;;;;;;;;3.00;3.00;;;;;15.58;62.19;100428.06;5055318;28;45389;-60
2022/04/13 00:49:31;;;;;;;;;3.00;3.00;;;;;15.62;62.39;100432.22;5055510;28;45385;-66
2022/04/13 00:52:02;;;;;;;;;3.25;1.75;;;;;15.60;62.31;100426.16;5055980;28;45638;-63
2022/04/13 00:54:32;;;;;;;;;2.50;2.50;;;;;15.60;62.34;100422.66;5055861;28;46377;-66
2022/04/13 00:56:58;;;;;;;;;4.00;3.00;;;;;15.55;62.34;100417.66;5055924;28;45257;-65
2022/04/13 00:59:25;;;;;;;;;2.00;2.00;;;;;15.54;62.44;100418.59;5055707;28;45212;-62
2022/04/13 01:01:54;;;;;;;;;2.50;1.75;;;;;15.48;62.33;100406.59;5054457;28;45449;-67
2022/04/13 01:04:19;;;;;;;;;3.00;3.00;;;;;15.47;62.47;100415.50;5055450;28;46753;-69
2022/04/13 01:06:45;;;;;;;;;3.00;2.00;;;;;15.44;62.72;100421.00;5055665;28;45359;-64
2022/04/13 01:09:13;;;;;;;;;3.00;3.00;;;;;15.41;62.74;100421.19;5055793;28;45207;-62
2022/04/13 01:11:38;;;;;;;;;5.75;2.00;;;;;15.39;63.07;100424.88;5054665;28;45577;-63
2022/04/13 01:14:04;;;;;;;;;3.50;2.00;;;;;15.38;62.59;100426.69;5055163;28;46541;-65
2022/04/13 01:16:29;;;;;;;;;2.25;2.25;;;;;15.38;63.40;100418.75;5055597;28;45412;-67
2022/04/13 01:18:55;;;;;;;;;2.75;2.75;;;;;15.37;63.29;100418.81;5054390;28;45460;-67
2022/04/13 01:21:48;;;;;;;;;4.00;3.75;;;;;15.38;63.53;100416.09;5054289;28;45290;-67
2022/04/13 01:24:15;;;;;;;;;5.00;2.50;;;;;15.37;63.59;100417.00;5055062;28;45490;-68
2022/04/13 01:26:40;;;;;;;;;2.25;2.25;;;;;15.36;63.49;100414.47;5055116;28;45456;-69
2022/04/13 01:29:06;;;;;;;;;3.75;3.75;;;;;15.38;63.43;100424.03;5055423;28;45363;-66
2022/04/13 01:31:32;;;;;;;;;7.25;5.00;;;;;15.37;63.52;100432.91;5037493;28;45430;-61
2022/04/13 01:33:59;;;;;;;;;4.00;3.00;;;;;15.35;63.65;100432.16;5055610;28;45365;-68
2022/04/13 01:36:25;;;;;;;;;5.25;3.00;;;;;15.33;63.81;100440.22;5055281;28;45405;-67
2022/04/13 01:38:50;;;;;;;;;2.50;2.00;;;;;15.33;63.63;100439.34;5055335;28;45216;-60
2022/04/13 01:41:15;;;;;;;;;7.00;4.00;;;;;15.34;63.83;100435.75;5055250;28;45646;-60
2022/04/13 01:43:41;;;;;;;;;3.00;2.00;;;;;15.34;63.74;100435.75;5054604;28;46169;-65
2022/04/13 01:46:06;;;;;;;;;3.25;2.00;;;;;15.31;63.88;100434.16;5057216;28;45433;-64
2022/04/13 01:48:31;;;;;;;;;3.00;3.00;;;;;15.34;64.08;100441.91;5054918;28;45443;-67
2022/04/13 01:51:00;;;;;;;;;5.00;3.00;;;;;15.31;64.26;100436.81;5055299;28;45260;-65
2022/04/13 01:53:26;;;;;;;;;4.00;4.00;;;;;15.34;63.94;100452.50;5054577;28;45388;-66
2022/04/13 01:55:53;;;;;;;;;2.50;2.50;;;;;15.34;64.34;100444.56;5054765;28;45299;-67
2022/04/13 01:58:19;;;;;;;;;2.00;2.00;;;;;15.33;64.27;100453.47;5055103;28;45255;-63
2022/04/13 02:00:45;;;;;;;;;2.00;2.00;;;;;15.31;64.00;100447.41;5055089;28;45492;-64
2022/04/13 02:03:10;;;;;;;;;2.50;2.00;;;;;15.31;64.58;100447.41;5054790;28;45476;-64
2022/04/13 02:05:35;;;;;;;;;3.25;3.00;;;;;15.32;64.29;100458.84;5058424;28;45383;-63
2022/04/13 02:08:01;;;;;;;;;4.00;2.00;;;;;15.32;64.82;100454.41;5057745;28;45419;-65
2022/04/13 02:10:27;;;;;;;;;4.00;2.25;;;;;15.36;65.37;100465.66;5058711;28;45596;-64
2022/04/13 02:12:53;;;;;;;;;6.75;4.25;;;;;15.39;65.58;100459.31;5058019;28;45349;-65
2022/04/13 02:15:18;;;;;;;;;4.00;4.00;;;;;15.39;65.02;100454.03;5058008;28;45514;-63
2022/04/13 02:17:43;;;;;;;;;4.25;3.25;;;;;15.39;65.05;100456.69;5058768;28;45346;-66
2022/04/13 02:20:09;;;;;;;;;3.25;3.25;;;;;15.42;65.02;100460.00;5058740;28;45593;-65
2022/04/13 02:22:35;;;;;;;;;4.25;4.00;;;;;15.43;65.31;100459.06;5056723;28;45459;-68
2022/04/13 02:25:01;;;;;;;;;8.50;5.00;;;;;15.43;64.72;100460.84;5058612;28;45334;-67
2022/04/13 02:27:27;;;;;;;;;3.00;3.00;;;;;15.42;65.04;100462.66;5058240;28;45323;-68
2022/04/13 02:29:52;;;;;;;;;4.50;3.00;;;;;15.43;65.28;100463.50;5058263;28;45568;-68
2022/04/13 02:32:18;;;;;;;;;4.50;4.50;;;;;15.43;64.83;100466.13;5057826;28;46165;-66
2022/04/13 02:34:44;;;;;;;;;5.00;3.25;;;;;15.41;65.26;100468.91;5058002;28;45494;-65
2022/04/13 02:37:11;;;;;;;;;7.25;4.50;;;;;15.40;65.21;100468.97;5056855;28;45340;-67
2022/04/13 02:39:36;;;;;;;;;7.00;5.50;;;;;15.42;65.63;100477.69;5058102;28;45390;-63
2022/04/13 02:42:02;;;;;;;;;6.25;5.00;;;;;15.42;65.52;100467.94;5058061;28;45532;-67
2022/04/13 02:44:27;;;;;;;;;5.25;4.00;;;;;15.43;65.42;100461.69;5057908;28;45244;-67
2022/04/13 02:46:53;;;;;;;;;6.25;4.00;;;;;15.46;65.45;100476.53;5057770;28;45216;-62
2022/04/13 02:49:18;;;;;;;;;4.25;3.00;;;;;15.44;65.48;100471.34;5057873;28;45658;-63
2022/04/13 02:51:43;;;;;;;;;4.75;4.00;;;;;15.42;65.97;100465.31;5057694;28;46134;-63
2022/04/13 02:54:09;;;;;;;;;4.50;4.50;;;;;15.44;66.03;100471.34;5056300;28;45495;-63
2022/04/13 02:56:35;;;;;;;;;5.50;5.00;;;;;15.43;65.65;100476.75;5056722;28;45365;-61
2022/04/13 02:59:00;;;;;;;;;4.00;4.00;;;;;15.36;65.81;100463.00;5058000;28;45521;-64
2022/04/13 03:01:26;;;;;;;;;3.75;3.75;;;;;15.38;66.14;100465.56;5057808;28;46551;-62
2022/04/13 03:03:51;;;;;;;;;3.25;3.00;;;;;15.32;66.01;100458.84;5056182;28;45361;-64
2022/04/13 03:06:17;;;;;;;;;4.00;3.25;;;;;15.29;66.55;100459.91;5057547;28;45436;-63
2022/04/13 03:08:42;;;;;;;;;3.25;3.25;;;;;15.27;66.85;100469.75;5057829;28;45288;-64
2022/04/13 03:11:08;;;;;;;;;3.75;3.00;;;;;15.26;67.20;100473.34;5057458;28;45997;-67
2022/04/13 03:13:33;;;;;;;;;5.25;4.25;;;;;15.26;67.66;100481.28;5057680;28;45409;-66
2022/04/13 03:15:59;;;;;;;;;8.00;5.50;;;;;15.26;67.79;100481.28;5057542;28;45315;-69
2022/04/13 03:18:24;;;;;;;;;6.75;5.00;;;;;15.22;67.67;100485.06;5056309;28;45306;-65
2022/04/13 03:20:49;;;;;;;;;4.75;3.75;;;;;15.15;68.10;100492.53;5057200;28;45611;-66
2022/04/13 03:23:15;;;;;;;;;6.75;4.00;;;;;15.10;68.49;100497.25;5057026;28;51416;-67
2022/04/13 03:25:40;;;;;;;;;5.25;5.00;;;;;14.95;69.00;100479.66;5057079;28;45304;-66
2022/04/13 03:28:05;;;;;;;;;7.25;5.00;;;;;15.03;69.49;100496.78;5057741;28;45600;-66
2022/04/13 03:30:31;;;;;;;;;5.00;5.00;;;;;14.99;69.86;100500.56;5056707;28;45682;-64
2022/04/13 03:32:56;;;;;;;;;5.00;5.00;;;;;14.92;70.40;100499.25;5056668;28;45533;-64
2022/04/13 03:35:22;;;;;;;;;7.00;5.00;;;;;14.91;70.98;100510.78;5056909;28;45291;-64
2022/04/13 03:37:48;;;;;;;;;5.25;5.00;;;;;14.83;71.42;100500.63;5056907;28;45531;-63
2022/04/13 03:40:13;;;;;;;;;5.50;5.50;;;;;14.79;71.95;100508.84;5056875;28;45844;-64
2022/04/13 03:42:41;;;;;;;;;8.00;6.00;;;;;14.78;72.92;100518.59;5056760;28;45326;-63
2022/04/13 03:45:09;;;;;;;;;5.00;5.00;;;;;14.72;73.12;100514.50;5057011;28;45437;-63
2022/04/13 03:47:35;;;;;;;;;7.50;5.00;;;;;14.68;73.93;100518.22;5057025;28;45489;-64
2022/04/13 03:50:01;;;;;;;;;6.75;5.25;;;;;14.68;74.24;100520.88;5056523;28;46151;-65
2022/04/13 03:52:27;;;;;;;;;6.75;5.75;;;;;14.65;74.60;100525.50;5056732;28;45414;-65
2022/04/13 03:54:52;;;;;;;;;5.00;4.50;;;;;14.63;74.42;100524.75;5056914;28;45580;-65
2022/04/13 03:57:18;;;;;;;;;8.00;5.50;;;;;14.60;74.82;100516.03;5057031;28;45299;-65
2022/04/13 03:59:43;;;;;;;;;9.75;7.50;;;;;14.57;75.00;100523.28;5056492;28;45328;-65
2022/04/13 04:02:08;;;;;;;;;4.50;4.25;;;;;14.54;74.98;100527.00;5057041;28;45219;-65
2022/04/13 04:04:34;;;;;;;;;8.50;6.25;;;;;14.51;76.00;100527.16;5056862;28;46058;-65
2022/04/13 04:06:59;;;;;;;;;8.25;7.00;;;;;14.48;76.27;100526.47;5056789;28;45514;-60
2022/04/13 04:09:24;;;;;;;;;8.00;5.25;;;;;14.44;76.94;100516.06;5056367;28;46218;-63
2022/04/13 04:11:50;;;;;;;;;10.25;7.00;;;;;14.44;76.76;100521.38;5056179;28;45410;-64
2022/04/13 04:14:15;;;;;;;;;7.50;7.00;;;;;14.44;77.02;100524.00;5056481;28;45398;-65
2022/04/13 04:16:41;;;;;;;;;7.00;7.00;;;;;14.42;77.63;100527.69;5056440;28;45401;-67
2022/04/13 04:19:06;;;;;;;;;4.50;4.00;;;;;14.39;78.58;100539.31;5056403;28;46548;-65
2022/04/13 04:21:31;;;;;;;;;9.00;9.00;;;;;14.35;79.03;100531.63;5056109;28;45354;-65
2022/04/13 04:23:57;;;;;;;;;12.00;8.50;;;;;14.27;79.45;100537.34;5056062;28;45327;-63
2022/04/13 04:26:22;;;;;;;;;6.00;6.00;;;;;14.20;80.69;100536.81;5055564;28;45426;-63
2022/04/13 04:28:48;;;;;;;;;12.00;10.50;;;;;14.15;80.40;100544.16;5054580;28;46218;-59
2022/04/13 04:31:13;;;;;;;;;8.75;8.75;;;;;14.10;80.56;100549.72;5055754;28;45410;-63
2022/04/13 04:33:38;;;;;;;;;10.25;7.75;;;;;14.06;81.19;100553.50;5056135;28;45273;-66
2022/04/13 04:36:04;;;;;;;;;7.50;6.00;;;;;14.02;81.19;100555.44;5056194;28;45284;-65
2022/04/13 04:38:32;;;;;;;;;7.75;7.75;;;;;14.01;81.32;100555.53;5055865;28;45419;-64
2022/04/13 04:40:58;;;;;;;;;7.50;7.00;;;;;13.99;83.09;100557.41;5054524;28;45771;-62
2022/04/13 04:43:24;;;;;;;;;7.50;7.50;;;;;13.93;82.33;100561.22;5055716;28;45424;-65
2022/04/13 04:45:49;;;;;;;;;7.75;7.75;;;;;13.90;82.06;100563.22;5055357;28;45533;-62
2022/04/13 04:48:15;;;;;;;;;9.25;9.25;;;;;13.87;81.72;100562.44;5055611;28;45455;-63
2022/04/13 04:50:40;;;;;;;;;9.25;9.25;;;;;13.86;82.07;100560.72;5055977;28;45342;-62
2022/04/13 04:53:05;;;;;;;;;10.75;7.25;;;;;13.84;82.69;100557.31;5055790;28;45301;-61
2022/04/13 04:55:31;;;;;;;;;10.25;9.50;;;;;13.84;82.71;100556.44;5055714;28;45442;-64
2022/04/13 04:57:57;;;;;;;;;13.25;10.00;;;;;13.86;83.05;100558.09;5055382;28;45619;-64
2022/04/13 05:00:22;;;;;;;;;14.25;10.25;;;;;13.87;82.96;100561.56;5055515;28;45521;-66
2022/04/13 05:02:52;;;;;;;;;13.00;10.25;;;;;13.88;83.85;100566.78;5054055;28;45271;-65
2022/04/13 05:05:19;;;;;;;;;9.00;7.00;;;;;13.90;84.39;100560.56;5055666;28;45409;-69
2022/04/13 05:07:44;;;;;;;;;13.00;11.00;;;;;13.89;84.23;100557.03;5055229;28;45516;-67
2022/04/13 05:10:10;;;;;;;;;15.25;11.25;;;;;13.92;84.65;100561.34;5055759;28;45322;-66
2022/04/13 05:12:42;;;;;;;;;13.25;11.75;;;;;13.96;84.59;100569.00;5055462;28;45387;-67
2022/04/13 05:15:08;;;;;;;;;12.50;12.00;;;;;13.97;85.07;100575.16;5055812;28;45166;-62
2022/04/13 05:17:33;;;;;;;;;10.75;10.50;;;;;13.97;84.89;100567.22;5055006;28;46226;-62
2022/04/13 05:19:59;;;;;;;;;17.75;14.75;;;;;14.01;85.22;100577.53;5055038;28;45255;-66
2022/04/13 05:22:24;;;;;;;;;17.50;14.00;;;;;14.03;84.56;100580.09;5055302;28;45331;-63
2022/04/13 05:24:49;;;;;;;;;11.50;11.50;;;;;14.06;84.83;100581.72;5054176;28;45409;-66
2022/04/13 05:27:15;;;;;;;;;15.00;14.00;;;;;14.05;85.03;100586.16;5055052;28;46142;-64
2022/04/13 05:29:40;;;;;;;;;15.25;11.50;;;;;14.07;84.70;100584.28;5055414;28;45298;-62
2022/04/13 05:32:06;;;;;;;;;14.00;13.00;;;;;14.15;85.10;100589.13;5054887;28;45359;-62
2022/04/13 05:34:31;;;;;;;;;15.00;12.50;;;;;14.15;85.18;100581.19;5055092;28;45280;-62
2022/04/13 05:36:57;;;;;;;;;16.00;14.25;;;;;14.16;84.80;100574.97;5054669;28;46602;-62
2022/04/13 05:39:22;;;;;;;;;12.25;12.25;;;;;14.19;83.84;100580.09;5052240;28;45299;-66
2022/04/13 05:41:48;;;;;;;;;14.50;12.00;;;;;14.25;84.34;100574.47;5054879;28;45667;-66
2022/04/13 05:44:13;;;;;;;;;13.00;10.75;;;;;14.25;84.05;100578.91;5054978;28;45339;-63
2022/04/13 05:46:38;;;;;;;;;24.75;22.50;;;;;14.30;84.50;100582.16;5052966;28;47959;-62
2022/04/13 05:49:04;;;;;;;;;20.25;14.75;;;;;14.30;84.33;100579.50;5054478;28;45446;-64
2022/04/13 05:51:29;;;;;;;;;17.00;14.50;;;;;14.35;84.46;100587.22;5054585;28;45955;-65
2022/04/13 05:53:55;;;;;;;;;17.50;15.00;;;;;14.38;84.38;100600.25;5054609;28;45406;-64
2022/04/13 05:56:20;;;;;;;;;12.00;12.00;;;;;14.40;84.23;100593.94;5054424;28;45589;-62
2022/04/13 05:58:46;;;;;;;;;23.75;21.00;;;;;14.41;84.21;100590.34;5053862;28;45495;-66
2022/04/13 06:01:11;;;;;;;;;20.75;18.00;;;;;14.45;84.20;100597.16;5053335;28;45264;-65
2022/04/13 06:03:36;;;;;;;;;26.75;25.75;;;;;14.48;84.18;100601.44;5054144;28;45547;-65
2022/04/13 06:06:02;;;;;;;;;19.00;17.00;;;;;14.52;83.79;100597.69;5053987;28;45330;-65
2022/04/13 06:08:27;;;;;;;;;18.00;15.25;;;;;14.54;83.58;100600.22;5054390;28;45373;-63
2022/04/13 06:10:52;;;;;;;;;17.25;17.25;;;;;14.60;83.42;100606.06;5054315;28;45379;-61
2022/04/13 06:13:18;;;;;;;;;22.00;20.50;;;;;14.62;83.45;100619.19;5054219;28;45211;-63
2022/04/13 06:15:44;;;;;;;;;16.00;13.75;;;;;14.65;83.44;100623.47;5054057;28;45767;-62
2022/04/13 06:18:10;;;;;;;;;13.25;13.25;;;;;14.63;83.45;100615.59;5053962;28;45475;-61
2022/04/13 06:20:35;;;;;;;;;15.00;14.00;;;;;14.67;83.33;100624.22;5054019;28;45375;-61
2022/04/13 06:23:00;;;;;;;;;19.75;16.25;;;;;14.68;83.49;100621.47;5053393;28;46005;-59
2022/04/13 06:25:26;;;;;;;;;15.75;15.75;;;;;14.68;82.54;100634.72;5053593;28;46456;-63
2022/04/13 06:27:51;;;;;;;;;23.75;21.25;;;;;14.66;82.35;100626.00;5051713;28;45330;-60
2022/04/13 06:30:17;;;;;;;;;19.00;18.25;;;;;14.65;82.18;100629.59;5053834;28;45325;-61
2022/04/13 06:32:44;;;;;;;;;18.75;17.00;;;;;14.65;82.71;100634.06;5054088;28;45441;-61
2022/04/13 06:35:11;;;;;;;;;15.50;14.00;;;;;14.64;83.08;100643.78;5053028;28;45532;-63
2022/04/13 06:37:39;;;;;;;;;16.75;14.75;;;;;14.66;82.84;100652.47;5053462;28;45384;-60
2022/04/13 06:40:06;;;;;;;;;22.50;16.50;;;;;14.64;82.97;100657.00;5056337;28;45486;-61
2022/04/13 06:42:39;;;;;;;;;21.25;17.75;;;;;14.62;83.89;100658.88;5071195;28;45574;-61
2022/04/13 06:45:10;;;;;;;;;27.00;23.50;;;;;14.64;83.58;100661.47;5067249;27;45680;-65
2022/04/13 06:47:35;;;;;;;;;20.00;18.50;;;;;14.63;83.86;100663.25;5052924;28;45271;-65
2022/04/13 06:50:01;;;;;;;;;19.75;15.75;;;;;14.64;84.40;100670.25;5053991;28;45361;-62
2022/04/13 06:52:27;;;;;;;;;15.00;15.00;;;;;14.66;84.79;100678.13;5056846;28;45272;-62
2022/04/13 06:54:52;;;;;;;;;18.75;16.25;;;;;14.66;84.54;100678.13;5055935;28;46634;-64
2022/04/13 06:57:18;;;;;;;;;23.75;19.00;;;;;14.65;85.16;100687.84;5061633;28;45505;-62
2022/04/13 06:59:43;;;;;;;;;22.25;18.00;;;;;14.63;85.47;100695.00;5076706;28;45488;-67
2022/04/13 07:02:10;;;;;;;;;25.00;21.75;;;;;14.61;85.57;100697.75;5076240;27;45561;-67
2022/04/13 07:04:37;;;;;;;;;24.00;21.25;;;;;14.64;86.82;100709.94;5076451;27;45521;-67
2022/04/13 07:07:02;;;;;;;;;20.75;17.75;;;;;14.64;85.53;100711.75;5075702;27;45378;-65
2022/04/13 07:09:28;;;;;;;;;17.00;15.50;;;;;14.61;85.30;100715.41;5076054;27;45351;-65
2022/04/13 07:11:53;;;;;;;;;19.75;17.75;;;;;14.56;85.68;100715.69;5076673;27;45447;-67
2022/04/13 07:14:20;;;;;;;;;21.75;16.75;;;;;14.50;85.73;100725.75;5091300;27;47202;-60
2022/04/13 07:16:45;;;;;;;;;20.00;18.00;;;;;14.51;86.51;100740.69;5076623;27;45283;-60
2022/04/13 07:19:11;;;;;;;;;20.75;19.00;;;;;14.46;86.44;100738.31;5076228;27;45280;-61
2022/04/13 07:21:36;;;;;;;;;21.00;19.25;;;;;14.47;86.59;100750.59;5077039;27;45238;-60
2022/04/13 07:24:02;;;;;;;;;35.00;31.00;;;;;14.51;87.24;100753.91;5075722;28;45264;-61
2022/04/13 07:26:27;;;;;;;;;25.00;23.00;;;;;14.53;86.69;100762.63;5075683;27;45409;-59
2022/04/13 07:28:54;;;;;;;;;19.75;16.75;;;;;14.55;86.23;100760.75;5074716;27;45418;-62
2022/04/13 07:31:19;;;;;;;;;21.75;19.75;;;;;14.57;86.53;100758.88;5076571;27;45506;-61
2022/04/13 07:33:45;;;;;;;;;21.00;17.75;;;;;14.59;86.62;100757.88;5075124;27;46581;-61
2022/04/13 07:36:12;;;;;;;;;23.75;20.50;;;;;14.60;86.75;100764.00;5074009;27;49137;-64
2022/04/13 07:38:37;;;;;;;;;17.75;17.75;;;;;14.57;87.26;100758.88;5076350;27;45510;-62
2022/04/13 07:41:03;;;;;;;;;20.75;19.25;;;;;14.55;86.60;100761.63;5076135;27;45830;-62
2022/04/13 07:43:29;;;;;;;;;19.00;17.50;;;;;14.44;86.96;100746.31;5076746;27;45657;-66
2022/04/13 07:45:54;;;;;;;;;21.50;20.25;;;;;14.54;87.68;100759.91;5076378;27;45309;-61
2022/04/13 07:48:19;;;;;;;;;22.25;19.75;;;;;14.58;87.82;100757.94;5076532;27;47469;-61
2022/04/13 07:50:47;;;;;;;;;22.75;18.50;;;;;14.61;88.19;100761.28;5076495;27;45564;-62
2022/04/13 07:53:13;;;;;;;;;19.00;17.25;;;;;14.66;87.60;100771.63;5076459;27;46538;-61
2022/04/13 07:55:38;;;;;;;;;20.75;19.50;;;;;14.67;87.42;100770.69;5076129;27;45289;-60
2022/04/13 07:58:04;;;;;;;;;24.00;22.00;;;;;14.73;87.09;100766.88;5076475;27;45283;-65
2022/04/13 08:00:29;;;;;;;;;24.25;20.00;;;;;14.74;86.81;100760.66;5058185;28;45470;-64
2022/04/13 08:02:54;;;;;;;;;19.75;18.25;;;;;14.79;86.71;100763.91;5075745;27;46468;-62
2022/04/13 08:05:22;;;;;;;;;23.25;20.00;;;;;14.84;87.10;100759.19;5076341;27;45323;-60
2022/04/13 08:07:47;;;;;;;;;20.50;18.25;;;;;14.93;87.57;100763.16;5075438;27;45370;-64
2022/04/13 08:10:12;;;;;;;;;19.25;17.50;;;;;15.00;85.96;100766.28;5076182;27;45339;-61
2022/04/13 08:12:41;;;;;;;;;12.00;12.00;;;;;15.00;85.43;100761.88;5076147;27;45583;-64
2022/04/13 08:15:08;;;;;;;;;28.75;26.50;;;;;15.01;85.74;100771.53;5076450;27;45287;-61
2022/04/13 08:17:34;;;;;;;;;15.50;14.00;;;;;15.03;85.72;100763.47;5076198;27;45246;-66
2022/04/13 08:19:59;;;;;;;;;20.50;19.00;;;;;15.04;85.44;100758.09;5076140;27;45179;-62
2022/04/13 08:22:26;;;;;;;;;12.50;7.25;;;;;15.11;84.65;100779.78;5076084;27;46366;-62
2022/04/13 08:24:52;;;;;;;;;1.00;1.00;;;;;15.15;83.68;100778.69;5076562;27;45406;-64
2022/04/13 08:27:17;;;;;;;;;12.50;12.50;;;;;15.16;82.57;100780.38;5076170;27;45459;-69
2022/04/13 08:29:43;;;;;;;;;26.25;20.25;;;;;15.17;83.65;100779.44;5076128;27;45484;-67
2022/04/13 08:32:08;;;;;;;;;18.25;16.25;;;;;15.24;83.71;100782.63;5075683;27;46709;-66
2022/04/13 08:34:33;;;;;;;;;13.75;12.00;;;;;15.29;82.87;100783.22;5075659;27;47187;-70
2022/04/13 08:36:59;;;;;;;;;19.75;17.00;;;;;15.34;83.14;100785.56;5075982;27;45365;-65
2022/04/13 08:39:25;;;;;;;;;16.75;16.00;;;;;15.36;82.06;100782.84;5076196;27;45360;-65
2022/04/13 08:41:57;;;;;;;;;15.25;13.25;;;;;15.39;83.34;100785.31;5075952;27;47057;-68
2022/04/13 08:44:30;;;;;;;;;21.25;20.75;;;;;15.42;82.95;100799.28;5076035;27;45423;-67
2022/04/13 08:47:01;;;;;;;;;21.25;19.25;;;;;15.43;82.87;100802.75;5075527;28;45329;-69
2022/04/13 08:49:27;;;;;;;;;14.75;14.75;;;;;15.44;82.80;100807.13;5075508;27;45324;-70
2022/04/13 08:51:54;;;;;;;;;18.25;17.50;;;;;15.46;82.97;100813.19;5075449;27;45315;-64
2022/04/13 08:54:28;;;;;;;;;16.75;15.75;;;;;15.47;82.54;100821.06;5075961;27;45435;-70
2022/04/13 08:56:55;;;;;;;;;18.25;17.25;;;;;15.49;82.36;100820.97;5075608;27;45419;-63
2022/04/13 08:59:38;;;;;;;;;28.00;26.25;;;;;15.54;83.26;100831.31;5075876;27;45596;-69
2022/04/13 09:02:21;;;;;;;;;38.75;33.00;;;;;15.55;83.46;100831.22;5075425;27;46349;-69
2022/04/13 09:04:48;;;;;;;;;16.25;16.25;;;;;15.59;82.83;100831.91;5075368;27;45411;-65
2022/04/13 09:07:16;;;;;;;;;24.75;22.25;;;;;15.62;83.02;100834.38;5075422;27;45408;-61
2022/04/13 09:09:46;;;;;;;;;22.50;21.50;;;;;15.64;84.26;100837.81;5075149;27;45423;-61
2022/04/13 09:12:13;;;;;;;;;183.50;163.25;;;;;15.68;83.85;100847.28;5074627;27;45830;-66
2022/04/13 09:14:39;;;;;;;;;27.25;26.25;;;;;15.68;89.89;100846.44;5074903;27;45415;-62
2022/04/13 09:17:05;;;;;;;;;65.00;52.67;;;;;15.65;90.80;100850.13;5074882;27;45356;-65
2022/04/13 09:19:32;;;;;;;;;77.00;69.67;;;;;15.61;88.26;100846.78;5090910;27;45440;-61
2022/04/13 09:21:58;;;;;;;;;123.25;119.50;;;;;15.61;85.44;100849.44;5074699;28;46695;-64
2022/04/13 09:24:27;;;;;;;;;55.50;44.75;;;;;15.57;85.10;100849.72;5075084;27;45377;-66
2022/04/13 09:26:53;;;;;;;;;66.00;53.00;;;;;15.61;84.50;100862.69;5075100;27;45307;-69
2022/04/13 09:29:19;;;;;;;;;44.25;37.50;;;;;15.61;85.15;100864.50;5074709;27;45212;-63
2022/04/13 09:31:45;;;;;;;;;76.33;69.33;;;;;15.71;86.16;100867.47;5074516;27;46560;-66
2022/04/13 09:34:10;;;;;;;;;30.50;29.50;;;;;15.84;85.68;100867.63;5074659;28;45396;-67
2022/04/13 09:36:36;;;;;;;;;23.00;22.00;;;;;15.96;83.97;100861.63;5074967;27;45333;-61
2022/04/13 09:39:01;;;;;;;;;19.00;17.50;;;;;16.13;83.21;100873.91;5074864;27;45393;-61
2022/04/13 09:41:36;;;;;;;;;22.25;21.25;;;;;16.24;82.95;100873.25;5074514;28;46387;-63
2022/04/13 09:44:02;;;;;;;;;24.25;19.25;;;;;16.32;82.67;100875.47;5074392;27;45378;-61
2022/04/13 09:46:30;;;;;;;;;21.50;20.25;;;;;16.36;81.77;100871.69;5074374;27;45332;-62
2022/04/13 09:49:16;;;;;;;;;23.25;21.25;;;;;16.44;81.41;100872.09;5074957;27;45355;-66
2022/04/13 09:51:43;;;;;;;;;22.25;21.00;;;;;16.49;80.29;100869.16;5089769;27;46161;-66
2022/04/13 09:54:12;;;;;;;;;27.75;27.75;;;;;16.58;79.53;100875.69;5074330;27;45225;-62
2022/04/13 09:56:44;;;;;;;;;22.25;19.25;;;;;16.59;79.13;100875.63;5074396;27;45400;-65
2022/04/13 09:59:10;;;;;;;;;28.00;26.50;;;;;16.66;79.53;100878.75;5074694;27;45365;-63
2022/04/13 10:01:37;;;;;;;;;23.50;19.25;;;;;16.73;78.70;100865.94;5072970;27;47096;-64
2022/04/13 10:04:03;;;;;;;;;20.50;19.25;;;;;16.78;78.10;100874.50;5074342;27;45356;-65
2022/04/13 10:06:30;;;;;;;;;19.25;19.25;;;;;16.82;78.17;100868.03;5074298;27;45362;-64
2022/04/13 10:09:08;;;;;;;;;18.25;18.25;;;;;16.88;77.94;100877.41;5074528;27;45289;-64
2022/04/13 10:11:34;;;;;;;;;18.75;18.75;;;;;16.93;77.56;100875.31;5073949;27;45473;-62
2022/04/13 10:14:05;;;;;;;;;16.00;16.00;;;;;16.93;76.83;100872.66;5073787;28;45437;-62
2022/04/13 10:16:34;;;;;;;;;13.00;13.00;;;;;16.90;75.92;100875.50;5074084;27;45404;-67
2022/04/13 10:19:02;;;;;;;;;19.00;18.50;;;;;16.87;76.66;100876.56;5073981;27;45466;-61
2022/04/13 10:21:41;;;;;;;;;21.25;19.00;;;;;16.84;76.66;100874.09;5073994;27;46244;-65
2022/04/13 10:24:23;;;;;;;;;24.75;22.25;;;;;16.85;76.43;100878.47;5073620;27;45286;-62
2022/04/13 10:27:20;;;;;;;;;20.50;16.75;;;;;16.83;76.11;100876.84;5078099;27;45402;-65
2022/04/13 10:29:47;;;;;;;;;19.00;16.75;;;;;16.85;75.80;100878.47;5077600;27;45292;-64
2022/04/13 10:32:14;;;;;;;;;21.50;20.25;;;;;16.89;76.13;100880.00;5077333;27;46036;-65
2022/04/13 10:34:40;;;;;;;;;19.75;18.00;;;;;16.87;75.56;100873.03;5076981;27;45376;-63
2022/04/13 10:37:07;;;;;;;;;19.00;15.00;;;;;16.87;75.66;100887.19;5077433;27;45384;-68
2022/04/13 10:39:34;;;;;;;;;23.50;20.50;;;;;16.88;75.83;100885.38;5077489;27;45354;-66
2022/04/13 10:42:01;;;;;;;;;19.50;18.50;;;;;16.90;75.10;100884.34;5076439;27;45486;-64
2022/04/13 10:44:36;;;;;;;;;21.50;19.75;;;;;16.94;75.27;100888.53;5077801;27;45376;-66
2022/04/13 10:47:04;;;;;;;;;38.25;34.25;;;;;16.95;75.54;100881.38;5077472;27;45355;-68
2022/04/13 10:50:12;;;;;;;;;28.25;23.75;;;;;17.01;75.48;100874.88;5077776;27;45312;-74
2022/04/13 10:52:53;;;;;;;;;24.25;24.25;;;;;17.16;75.51;100895.19;5034106;28;46902;-69
2022/04/13 10:55:20;;;;;;;;;21.50;21.50;;;;;17.27;75.12;100889.19;5034913;28;45434;-67
2022/04/13 10:58:20;;;;;;;;;25.50;24.00;;;;;17.43;76.06;100894.38;5058843;27;45399;-63
2022/04/13 11:00:49;;;;;;;;;18.50;17.75;;;;;17.51;73.86;100886.78;5068475;27;45668;-69
2022/04/13 11:03:16;;;;;;;;;21.25;20.00;;;;;17.50;73.92;100892.19;5077064;27;45949;-64
2022/04/13 11:05:42;;;;;;;;;21.50;21.50;;;;;17.48;73.90;100884.28;5092651;27;45437;-64
2022/04/13 11:08:18;;;;;;;;;22.00;22.00;;;;;17.42;73.01;100883.84;5077129;28;45319;-64
2022/04/13 11:10:48;;;;;;;;;32.50;29.25;;;;;17.29;72.98;100884.63;5077790;27;45472;-62
2022/04/13 11:13:14;;;;;;;;;21.25;20.00;;;;;17.29;72.92;100876.66;5076564;27;47297;-63
2022/04/13 11:15:45;;;;;;;;;18.25;17.25;;;;;17.40;73.02;100891.06;5076631;27;45381;-64